createdAt,value
2024-01-20T00:02:25.092Z,80.24
2024-01-20T00:05:28.451Z,80.43
2024-01-20T00:08:31.804Z,80.95
2024-01-20T00:11:36.683Z,80.78
2024-01-20T00:14:40.094Z,80.97
2024-01-20T00:17:43.634Z,81.67
2024-01-20T00:20:48.129Z,81.31
2024-01-20T00:23:51.665Z,81.32
2024-01-20T00:26:56.794Z,81.83
2024-01-20T00:30:01.035Z,81.39
2024-01-20T00:33:05.827Z,81.34
2024-01-20T00:36:10.018Z,81.20
2024-01-20T00:39:14.020Z,81.07
2024-01-20T00:42:18.637Z,80.91
2024-01-20T00:45:21.699Z,81.71
2024-01-20T00:48:25.007Z,81.62
2024-01-20T00:51:28.251Z,81.98
2024-01-20T00:54:31.505Z,81.72
2024-01-20T00:57:36.110Z,82.03
2024-01-20T01:00:40.500Z,81.42
2024-01-20T01:03:44.225Z,81.43
2024-01-20T01:06:47.606Z,82.10
2024-01-20T01:09:50.802Z,81.70
2024-01-20T01:12:55.470Z,82.11
2024-01-20T01:15:58.644Z,81.86
2024-01-20T01:19:01.819Z,82.06
2024-01-20T01:22:05.564Z,82.14
2024-01-20T01:25:10.535Z,82.35
2024-01-20T01:28:15.376Z,82.34
2024-01-20T01:31:20.985Z,82.10
2024-01-20T01:34:24.312Z,81.84
2024-01-20T01:37:27.569Z,82.31
2024-01-20T01:40:30.839Z,82.52
2024-01-20T01:43:35.545Z,82.04
2024-01-20T01:46:39.545Z,81.94
2024-01-20T01:49:43.200Z,82.26
2024-01-20T01:52:48.898Z,82.30
2024-01-20T01:55:54.166Z,82.05
2024-01-20T01:58:59.844Z,81.77
2024-01-20T02:02:03.319Z,81.94
2024-01-20T02:05:07.122Z,82.60
2024-01-20T02:08:10.594Z,82.78
2024-01-20T02:11:15.658Z,82.67
2024-01-20T02:14:21.531Z,82.66
2024-01-20T02:17:25.427Z,82.86
2024-01-20T02:20:28.594Z,82.86
2024-01-20T02:23:39.125Z,82.99
2024-01-20T02:26:42.615Z,83.25
2024-01-20T02:29:46.225Z,83.51
2024-01-20T02:32:49.682Z,83.00
2024-01-20T02:35:53.394Z,83.13
2024-01-20T02:38:58.185Z,82.98
2024-01-20T02:42:01.841Z,83.21
2024-01-20T02:45:05.895Z,83.26
2024-01-20T02:48:11.234Z,83.14
2024-01-20T02:51:14.696Z,82.48
2024-01-20T02:54:19.471Z,82.49
2024-01-20T02:57:22.981Z,82.79
2024-01-20T03:00:29.384Z,82.64
2024-01-20T03:03:32.758Z,82.45
2024-01-20T03:06:35.960Z,82.50
2024-01-20T03:09:40.476Z,81.97
2024-01-20T03:12:43.975Z,82.18
2024-01-20T03:15:47.596Z,81.87
2024-01-20T03:18:51.276Z,81.85
2024-01-20T03:21:54.618Z,81.70
2024-01-20T03:24:59.364Z,82.14
2024-01-20T03:28:02.478Z,82.30
2024-01-20T03:31:06.126Z,82.30
2024-01-20T03:34:10.148Z,82.04
2024-01-20T03:37:13.357Z,81.37
2024-01-20T03:40:18.027Z,81.49
2024-01-20T03:43:21.295Z,81.10
2024-01-20T03:46:25.452Z,80.78
2024-01-20T03:49:29.420Z,80.86
2024-01-20T03:52:32.602Z,80.77
2024-01-20T03:55:37.484Z,81.43
2024-01-20T03:58:41.318Z,81.37
2024-01-20T04:01:44.555Z,81.45
2024-01-20T04:04:47.758Z,81.89
2024-01-20T04:07:51.078Z,82.08
2024-01-20T04:10:55.972Z,81.67
2024-01-20T04:13:59.247Z,81.90
2024-01-20T04:17:02.419Z,81.45
2024-01-20T04:20:06.948Z,81.43
2024-01-20T04:23:10.201Z,81.76
2024-01-20T04:26:14.853Z,81.69
2024-01-20T04:29:18.140Z,82.10
2024-01-20T04:32:21.205Z,81.75
2024-01-20T04:35:24.469Z,82.18
2024-01-20T04:38:28.369Z,81.77
2024-01-20T04:41:33.048Z,81.66
2024-01-20T04:44:36.141Z,80.86
2024-01-20T04:47:39.288Z,81.09
2024-01-20T04:50:42.570Z,81.14
2024-01-20T04:53:45.870Z,80.68
2024-01-20T04:56:50.626Z,80.84
2024-01-20T04:59:53.883Z,80.65
2024-01-20T05:02:57.073Z,80.42
2024-01-20T05:06:00.444Z,80.15
2024-01-20T05:09:05.930Z,79.62
2024-01-20T05:12:10.839Z,79.37
2024-01-20T05:15:14.108Z,78.52
2024-01-20T05:18:17.749Z,78.47
2024-01-20T05:21:21.067Z,77.54
2024-01-20T05:24:24.214Z,77.53
2024-01-20T05:27:29.048Z,77.34
2024-01-20T05:30:32.466Z,76.79
2024-01-20T05:33:36.083Z,77.50
2024-01-20T05:36:39.365Z,77.39
2024-01-20T05:39:42.662Z,76.68
2024-01-20T05:42:47.468Z,76.74
2024-01-20T05:45:50.539Z,76.58
2024-01-20T05:48:53.843Z,76.84
2024-01-20T05:51:57.054Z,76.08
2024-01-20T05:55:00.332Z,75.90
2024-01-20T05:58:05.203Z,75.97
2024-01-20T06:01:11.299Z,75.27
2024-01-20T06:04:14.536Z,75.08
2024-01-20T06:07:17.798Z,74.69
2024-01-20T06:10:21.111Z,75.12
2024-01-20T06:13:25.684Z,75.26
2024-01-20T06:16:28.781Z,74.81
2024-01-20T06:19:31.837Z,74.72
2024-01-20T06:22:35.123Z,75.12
2024-01-20T06:25:38.317Z,74.41
2024-01-20T06:28:43.111Z,74.12
2024-01-20T06:31:46.484Z,74.35
2024-01-20T06:34:49.654Z,74.55
2024-01-20T06:37:52.980Z,75.06
2024-01-20T06:40:56.320Z,74.61
2024-01-20T06:44:00.943Z,74.86
2024-01-20T06:47:04.187Z,74.75
2024-01-20T06:50:09.695Z,74.86
2024-01-20T06:53:12.882Z,74.03
2024-01-20T06:56:16.610Z,73.81
2024-01-20T06:59:21.093Z,73.67
2024-01-20T07:02:24.153Z,74.36
2024-01-20T07:05:27.420Z,74.13
2024-01-20T07:08:30.814Z,73.71
2024-01-20T07:11:33.988Z,73.33
2024-01-20T07:14:38.541Z,73.57
2024-01-20T07:17:41.656Z,72.93
2024-01-20T07:20:46.011Z,73.83
2024-01-20T07:23:49.111Z,73.31
2024-01-20T07:26:52.379Z,73.61
2024-01-20T07:29:56.954Z,73.64
2024-01-20T07:33:00.354Z,73.32
2024-01-20T07:36:04.862Z,72.80
2024-01-20T07:39:08.173Z,73.02
2024-01-20T07:42:12.118Z,72.65
2024-01-20T07:45:16.740Z,72.35
2024-01-20T07:48:20.654Z,72.88
2024-01-20T07:51:24.048Z,72.03
2024-01-20T07:54:27.294Z,72.15
2024-01-20T07:57:30.535Z,72.32
2024-01-20T08:00:35.222Z,72.61
2024-01-20T08:03:38.548Z,72.46
2024-01-20T08:06:41.762Z,72.63
2024-01-20T08:09:45.221Z,72.80
2024-01-20T08:12:48.388Z,72.73
2024-01-20T08:15:53.126Z,73.76
2024-01-20T08:18:57.530Z,73.54
2024-01-20T08:22:00.801Z,73.61
2024-01-20T08:25:06.145Z,73.33
2024-01-20T08:28:12.008Z,73.21
2024-01-20T08:31:19.819Z,72.93
2024-01-20T08:34:23.276Z,73.07
2024-01-20T08:37:26.702Z,72.51
2024-01-20T08:40:29.819Z,72.20
2024-01-20T08:43:36.168Z,72.29
2024-01-20T08:46:40.771Z,72.14
2024-01-20T08:49:43.947Z,72.38
2024-01-20T08:52:47.564Z,72.29
2024-01-20T08:55:50.712Z,71.88
2024-01-20T08:58:53.865Z,72.14
2024-01-20T09:01:58.407Z,71.88
2024-01-20T09:05:04.025Z,71.36
2024-01-20T09:08:10.748Z,71.86
2024-01-20T09:11:14.481Z,72.10
2024-01-20T09:14:17.748Z,72.07
2024-01-20T09:17:22.483Z,72.11
2024-01-20T09:20:25.916Z,71.84
2024-01-20T09:23:29.149Z,71.70
2024-01-20T09:26:32.426Z,71.44
2024-01-20T09:29:39.132Z,71.30
2024-01-20T09:32:44.570Z,70.97
2024-01-20T09:35:48.329Z,71.32
2024-01-20T09:38:51.572Z,70.65
2024-01-20T09:41:55.341Z,70.14
2024-01-20T09:44:59.625Z,69.78
2024-01-20T09:48:05.440Z,69.79
2024-01-20T09:51:09.727Z,69.15
2024-01-20T09:54:14.670Z,69.79
2024-01-20T09:57:18.585Z,69.78
2024-01-20T10:00:26.273Z,69.44
2024-01-20T10:03:32.628Z,68.79
2024-01-20T10:06:36.521Z,68.97
2024-01-20T10:09:40.467Z,68.23
2024-01-20T10:12:43.785Z,68.41
2024-01-20T10:15:47.606Z,68.53
2024-01-20T10:18:58.372Z,68.23
2024-01-20T10:22:01.739Z,69.15
2024-01-20T10:25:08.561Z,68.03
2024-01-20T10:28:13.454Z,68.22
2024-01-20T10:31:16.675Z,67.95
2024-01-20T10:34:21.876Z,67.89
2024-01-20T10:37:31.957Z,68.64
2024-01-20T10:40:41.615Z,67.91
2024-01-20T10:43:55.189Z,67.92
2024-01-20T10:47:05.240Z,67.92
2024-01-20T10:50:13.482Z,67.56
2024-01-20T10:53:16.842Z,68.24
2024-01-20T10:56:20.524Z,68.53
2024-01-20T10:59:28.493Z,68.18
2024-01-20T11:02:31.759Z,68.33
2024-01-20T11:05:36.637Z,68.35
2024-01-20T11:08:51.410Z,68.54
2024-01-20T11:12:02.097Z,68.54
2024-01-20T11:15:12.683Z,68.56
2024-01-20T11:18:19.699Z,67.86
2024-01-20T11:21:24.389Z,67.94
2024-01-20T11:24:41.616Z,67.79
2024-01-20T11:27:48.780Z,67.41
2024-01-20T11:30:52.290Z,67.64
2024-01-20T11:33:55.807Z,67.16
2024-01-20T11:37:02.575Z,67.00
2024-01-20T11:40:09.059Z,67.13
2024-01-20T11:43:13.454Z,67.20
2024-01-20T11:46:17.012Z,67.29
2024-01-20T11:49:20.322Z,67.48
2024-01-20T11:52:25.194Z,66.94
2024-01-20T11:55:28.370Z,67.03
2024-01-20T11:58:32.800Z,67.33
2024-01-20T12:01:36.132Z,67.05
2024-01-20T12:04:39.343Z,66.42
2024-01-20T12:07:44.090Z,66.33
2024-01-20T12:10:47.941Z,67.10
2024-01-20T12:13:51.950Z,66.29
2024-01-20T12:16:55.807Z,65.85
2024-01-20T12:19:59.268Z,65.78
2024-01-20T12:23:04.643Z,65.46
2024-01-20T12:26:13.666Z,65.26
2024-01-20T12:29:17.109Z,65.12
2024-01-20T12:32:20.697Z,64.67
2024-01-20T12:35:23.936Z,64.75
2024-01-20T12:38:28.664Z,64.45
2024-01-20T12:41:31.913Z,64.41
2024-01-20T12:44:35.276Z,64.18
2024-01-20T12:47:38.442Z,64.50
2024-01-20T12:50:41.636Z,64.71
2024-01-20T12:53:46.245Z,64.28
2024-01-20T12:56:49.697Z,63.94
2024-01-20T12:59:53.118Z,64.53
2024-01-20T13:02:56.461Z,64.56
2024-01-20T13:05:59.749Z,64.76
2024-01-20T13:09:04.619Z,65.09
2024-01-20T13:12:10.501Z,64.59
2024-01-20T13:15:14.370Z,64.60
2024-01-20T13:18:17.605Z,64.49
2024-01-20T13:21:23.492Z,64.77
2024-01-20T13:24:30.340Z,64.73
2024-01-20T13:27:33.647Z,64.75
2024-01-20T13:30:37.090Z,64.89
2024-01-20T13:33:40.639Z,64.71
2024-01-20T13:36:43.992Z,64.69
2024-01-20T13:39:48.784Z,64.46
2024-01-20T13:42:52.522Z,64.22
2024-01-20T13:45:55.868Z,64.59
2024-01-20T13:49:00.857Z,64.94
2024-01-20T13:52:06.333Z,65.10
2024-01-20T13:55:11.001Z,65.08
2024-01-20T13:58:14.451Z,65.10
2024-01-20T14:01:22.734Z,64.98
2024-01-20T14:04:26.503Z,64.92
2024-01-20T14:07:29.808Z,64.95
2024-01-20T14:10:34.633Z,64.43
2024-01-20T14:13:37.838Z,64.87
2024-01-20T14:16:41.657Z,64.97
2024-01-20T14:19:45.189Z,65.64
2024-01-20T14:22:48.380Z,65.11
2024-01-20T14:25:54.481Z,64.88
2024-01-20T14:28:57.704Z,65.18
2024-01-20T14:32:03.702Z,65.07
2024-01-20T14:35:07.914Z,65.12
2024-01-20T14:38:11.432Z,64.87
2024-01-20T14:41:16.245Z,65.85
2024-01-20T14:44:19.677Z,65.50
2024-01-20T14:47:22.851Z,66.29
2024-01-20T14:50:26.082Z,65.94
2024-01-20T14:53:29.226Z,66.24
2024-01-20T14:56:37.207Z,66.50
2024-01-20T14:59:40.728Z,66.80
2024-01-20T15:02:43.943Z,66.81
2024-01-20T15:05:47.289Z,67.12
2024-01-20T15:08:50.771Z,66.97
2024-01-20T15:11:55.387Z,66.78
2024-01-20T15:14:58.506Z,67.27
2024-01-20T15:18:01.775Z,67.41
2024-01-20T15:21:06.000Z,67.10
2024-01-20T15:24:11.943Z,67.03
2024-01-20T15:27:16.425Z,67.34
2024-01-20T15:30:20.002Z,67.49
2024-01-20T15:33:32.567Z,67.13
2024-01-20T15:36:35.929Z,67.53
2024-01-20T15:39:39.233Z,67.32
2024-01-20T15:42:43.924Z,67.75
2024-01-20T15:45:47.180Z,67.71
2024-01-20T15:48:51.107Z,67.62
2024-01-20T15:51:54.545Z,68.00
2024-01-20T15:54:57.820Z,68.60
2024-01-20T15:58:02.398Z,68.12
2024-01-20T16:01:05.993Z,68.24
2024-01-20T16:04:12.362Z,68.53
2024-01-20T16:07:16.491Z,68.49
2024-01-20T16:10:20.691Z,68.73
2024-01-20T16:13:25.728Z,68.96
2024-01-20T16:16:32.117Z,68.81
2024-01-20T16:19:35.300Z,69.45
2024-01-20T16:22:38.700Z,69.47
2024-01-20T16:25:42.724Z,69.73
2024-01-20T16:28:47.957Z,69.30
2024-01-20T16:31:53.145Z,69.63
2024-01-20T16:34:56.398Z,69.43
2024-01-20T16:37:59.593Z,69.40
2024-01-20T16:41:03.210Z,70.29
2024-01-20T16:44:10.499Z,70.05
2024-01-20T16:47:13.816Z,69.88
2024-01-20T16:50:17.879Z,69.76
2024-01-20T16:53:21.900Z,69.53
2024-01-20T16:56:25.327Z,70.00
2024-01-20T16:59:30.833Z,70.08
2024-01-20T17:02:33.908Z,70.32
2024-01-20T17:05:37.305Z,70.42
2024-01-20T17:08:41.611Z,70.43
2024-01-20T17:11:46.179Z,70.30
2024-01-20T17:14:51.461Z,70.47
2024-01-20T17:17:54.760Z,70.26
2024-01-20T17:20:58.117Z,70.22
2024-01-20T17:24:01.449Z,70.36
2024-01-20T17:27:04.751Z,70.60
2024-01-20T17:30:10.847Z,70.87
2024-01-20T17:33:14.264Z,70.95
2024-01-20T17:36:17.627Z,70.63
2024-01-20T17:39:21.859Z,70.63
2024-01-20T17:42:25.146Z,71.11
2024-01-20T17:45:30.413Z,70.83
2024-01-20T17:48:33.891Z,71.06
2024-01-20T17:51:38.169Z,70.77
2024-01-20T17:54:41.556Z,70.81
2024-01-20T17:57:46.406Z,70.92
2024-01-20T18:00:51.440Z,70.99
2024-01-20T18:03:54.877Z,70.94
2024-01-20T18:06:58.131Z,71.11
2024-01-20T18:10:01.398Z,71.28
2024-01-20T18:13:06.693Z,70.90
2024-01-20T18:16:11.439Z,71.60
2024-01-20T18:19:15.224Z,71.42
2024-01-20T18:22:18.486Z,71.28
2024-01-20T18:25:22.929Z,71.91
2024-01-20T18:28:26.173Z,71.84
2024-01-20T18:31:31.304Z,72.32
2024-01-20T18:34:34.568Z,71.87
2024-01-20T18:37:39.302Z,72.09
2024-01-20T18:40:43.505Z,72.79
2024-01-20T18:43:46.900Z,72.16
2024-01-20T18:46:52.223Z,72.02
2024-01-20T18:49:55.593Z,72.49
2024-01-20T18:52:59.114Z,72.33
2024-01-20T18:56:02.454Z,72.19
2024-01-20T18:59:05.745Z,72.58
2024-01-20T19:02:10.548Z,72.07
2024-01-20T19:05:14.117Z,72.61
2024-01-20T19:08:17.447Z,72.84
2024-01-20T19:11:21.776Z,72.94
2024-01-20T19:14:25.409Z,73.15
2024-01-20T19:17:30.220Z,72.89
2024-01-20T19:20:38.348Z,73.27
2024-01-20T19:23:43.289Z,73.15
2024-01-20T19:26:46.653Z,72.90
2024-01-20T19:29:50.296Z,73.00
2024-01-20T19:32:56.159Z,73.26
2024-01-20T19:35:59.547Z,73.13
2024-01-20T19:39:05.299Z,72.79
2024-01-20T19:42:08.829Z,72.91
2024-01-20T19:45:12.070Z,73.22
2024-01-20T19:48:16.625Z,73.11
2024-01-20T19:51:19.980Z,73.23
2024-01-20T19:54:23.217Z,73.44
2024-01-20T19:57:27.787Z,73.75
2024-01-20T20:00:32.296Z,73.61
2024-01-20T20:03:37.024Z,73.59
2024-01-20T20:06:40.138Z,73.59
2024-01-20T20:09:43.401Z,73.28
2024-01-20T20:12:46.641Z,73.58
2024-01-20T20:15:50.326Z,73.77
2024-01-20T20:18:55.344Z,73.45
2024-01-20T20:21:58.672Z,74.10
2024-01-20T20:25:01.987Z,73.76
2024-01-20T20:28:06.363Z,73.83
2024-01-20T20:31:10.973Z,73.43
2024-01-20T20:34:16.278Z,73.70
2024-01-20T20:37:20.245Z,73.45
2024-01-20T20:40:23.555Z,73.92
2024-01-20T20:43:27.555Z,73.33
2024-01-20T20:46:34.497Z,73.76
2024-01-20T20:49:39.223Z,74.04
2024-01-20T20:52:45.221Z,74.21
2024-01-20T20:55:50.273Z,73.68
2024-01-20T20:58:53.536Z,73.51
2024-01-20T21:01:57.194Z,74.01
2024-01-20T21:05:01.950Z,74.25
2024-01-20T21:08:05.661Z,74.44
2024-01-20T21:11:10.203Z,74.33
2024-01-20T21:14:14.421Z,73.99
2024-01-20T21:17:17.703Z,74.20
2024-01-20T21:20:22.728Z,74.48
2024-01-20T21:23:26.812Z,73.96
2024-01-20T21:26:30.698Z,74.52
2024-01-20T21:29:34.216Z,74.17
2024-01-20T21:32:37.940Z,74.46
2024-01-20T21:35:43.024Z,74.76
2024-01-20T21:38:46.800Z,74.71
2024-01-20T21:41:50.484Z,74.83
2024-01-20T21:45:00.687Z,74.74
2024-01-20T21:48:04.041Z,74.47
2024-01-20T21:51:08.650Z,74.86
2024-01-20T21:54:14.791Z,74.47
2024-01-20T21:57:18.040Z,74.68
2024-01-20T22:00:21.977Z,74.81
2024-01-20T22:03:25.687Z,75.24
2024-01-20T22:06:30.824Z,75.23
2024-01-20T22:09:34.000Z,75.32
2024-01-20T22:12:37.239Z,75.23
2024-01-20T22:15:40.648Z,75.15
2024-01-20T22:18:44.057Z,75.73
2024-01-20T22:21:48.748Z,75.32
2024-01-20T22:24:52.423Z,75.77
2024-01-20T22:27:56.580Z,75.80
2024-01-20T22:31:00.430Z,75.90
2024-01-20T22:34:03.900Z,75.62
2024-01-20T22:37:08.847Z,75.43
2024-01-20T22:40:13.951Z,75.46
2024-01-20T22:43:17.373Z,75.58
2024-01-20T22:46:20.680Z,75.33
2024-01-20T22:49:24.119Z,76.08
2024-01-20T22:52:29.682Z,75.91
2024-01-20T22:55:33.126Z,76.28
2024-01-20T22:58:38.944Z,76.03
2024-01-20T23:01:42.569Z,76.10
2024-01-20T23:04:46.130Z,76.00
2024-01-20T23:07:53.388Z,76.54
2024-01-20T23:10:56.725Z,76.38
2024-01-20T23:14:00.566Z,76.89
2024-01-20T23:17:04.965Z,77.47
2024-01-20T23:20:11.975Z,77.53
2024-01-20T23:23:16.772Z,77.98
2024-01-20T23:26:20.408Z,77.76
2024-01-20T23:29:23.528Z,78.56
2024-01-20T23:32:27.198Z,78.61
2024-01-20T23:35:31.836Z,79.08
2024-01-20T23:38:36.407Z,78.43
2024-01-20T23:41:39.842Z,78.98
2024-01-20T23:44:43.324Z,78.69
2024-01-20T23:47:49.152Z,78.54
2024-01-20T23:50:52.324Z,78.76
2024-01-20T23:53:56.906Z,78.77
2024-01-20T23:57:02.003Z,79.10
